sensor_id;sensor_type;location;lat;lon;timestamp;pressure;altitude;pressure_sealevel;temperature;humidity
20620;BME280;10469;42.720;23.252;2023-03-01T00:01:50;95388.16;;;6.04;100.00
20620;BME280;10469;42.720;23.252;2023-03-01T00:04:16;95393.22;;;5.92;100.00
20620;BME280;10469;42.720;23.252;2023-03-01T00:06:45;95379.97;;;6.06;100.00
20620;BME280;10469;42.720;23.252;2023-03-01T00:09:14;95382.66;;;6.06;100.00
20620;BME280;10469;42.720;23.252;2023-03-01T00:11:40;95373.44;;;6.08;100.00
20620;BME280;10469;42.720;23.252;2023-03-01T00:14:05;95374.66;;;6.06;100.00
20620;BME280;10469;42.720;23.252;2023-03-01T00:16:40;95360.91;;;6.02;100.00
20620;BME280;10469;42.720;23.252;2023-03-01T00:19:07;95377.59;;;5.89;100.00
20620;BME280;10469;42.720;23.252;2023-03-01T00:21:35;95369.41;;;5.91;100.00
20620;BME280;10469;42.720;23.252;2023-03-01T00:24:01;95350.91;;;5.83;100.00
20620;BME280;10469;42.720;23.252;2023-03-01T00:26:27;95357.59;;;5.93;100.00
20620;BME280;10469;42.720;23.252;2023-03-01T00:28:54;95357.78;;;5.92;100.00
20620;BME280;10469;42.720;23.252;2023-03-01T00:31:22;95350.75;;;5.84;100.00
20620;BME280;10469;42.720;23.252;2023-03-01T00:33:53;95338.88;;;5.87;100.00
20620;BME280;10469;42.720;23.252;2023-03-01T00:36:24;95345.84;;;5.88;100.00
20620;BME280;10469;42.720;23.252;2023-03-01T00:38:50;95350.75;;;5.84;100.00
20620;BME280;10469;42.720;23.252;2023-03-01T00:41:17;95346.16;;;5.71;100.00
20620;BME280;10469;42.720;23.252;2023-03-01T00:43:43;95347.78;;;5.72;100.00
20620;BME280;10469;42.720;23.252;2023-03-01T00:46:21;95336.13;;;5.73;100.00
20620;BME280;10469;42.720;23.252;2023-03-01T00:48:47;95353.59;;;5.83;100.00
20620;BME280;10469;42.720;23.252;2023-03-01T00:51:16;95346.16;;;5.71;100.00
20620;BME280;10469;42.720;23.252;2023-03-01T00:53:42;95348.16;;;5.63;100.00
20620;BME280;10469;42.720;23.252;2023-03-01T00:56:09;95322.56;;;5.62;100.00
20620;BME280;10469;42.720;23.252;2023-03-01T00:58:36;95339.97;;;5.64;100.00
20620;BME280;10469;42.720;23.252;2023-03-01T01:01:17;95341.19;;;5.62;100.00
20620;BME280;10469;42.720;23.252;2023-03-01T01:03:52;95350.38;;;5.59;100.00
20620;BME280;10469;42.720;23.252;2023-03-01T01:06:20;95348.66;;;5.51;100.00
20620;BME280;10469;42.720;23.252;2023-03-01T01:08:47;95354.00;;;5.51;100.00
20620;BME280;10469;42.720;23.252;2023-03-01T01:11:13;95357.22;;;5.47;100.00
20620;BME280;10469;42.720;23.252;2023-03-01T01:13:39;95358.94;;;5.54;100.00
20620;BME280;10469;42.720;23.252;2023-03-01T01:16:05;95348.66;;;5.51;100.00
20620;BME280;10469;42.720;23.252;2023-03-01T01:18:31;95338.66;;;5.53;100.00
20620;BME280;10469;42.720;23.252;2023-03-01T01:20:56;95328.78;;;5.47;100.00
20620;BME280;10469;42.720;23.252;2023-03-01T01:23:22;95327.97;;;5.47;100.00
20620;BME280;10469;42.720;23.252;2023-03-01T01:25:48;95337.00;;;5.52;100.00
20620;BME280;10469;42.720;23.252;2023-03-01T01:28:13;95332.69;;;5.45;100.00
20620;BME280;10469;42.720;23.252;2023-03-01T01:30:39;95340.91;;;5.50;100.00
20620;BME280;10469;42.720;23.252;2023-03-01T01:33:04;95343.94;;;5.47;100.00
20620;BME280;10469;42.720;23.252;2023-03-01T01:35:30;95341.28;;;5.47;100.00
20620;BME280;10469;42.720;23.252;2023-03-01T01:37:55;95343.31;;;5.45;100.00
20620;BME280;10469;42.720;23.252;2023-03-01T01:40:21;95346.97;;;5.44;100.00
20620;BME280;10469;42.720;23.252;2023-03-01T01:42:46;95358.69;;;5.49;100.00
20620;BME280;10469;42.720;23.252;2023-03-01T01:45:32;95354.19;;;5.50;100.00
20620;BME280;10469;42.720;23.252;2023-03-01T01:48:04;95349.25;;;5.47;100.00
20620;BME280;10469;42.720;23.252;2023-03-01T01:50:32;95338.59;;;5.47;100.00
20620;BME280;10469;42.720;23.252;2023-03-01T01:53:09;95336.59;;;5.49;100.00
20620;BME280;10469;42.720;23.252;2023-03-01T01:55:37;95334.53;;;5.51;100.00
20620;BME280;10469;42.720;23.252;2023-03-01T01:58:09;95342.72;;;5.49;100.00
20620;BME280;10469;42.720;23.252;2023-03-01T02:00:36;95345.66;;;5.61;100.00
20620;BME280;10469;42.720;23.252;2023-03-01T02:03:08;95345.44;;;5.56;100.00
20620;BME280;10469;42.720;23.252;2023-03-01T02:05:46;95331.13;;;5.57;100.00
20620;BME280;10469;42.720;23.252;2023-03-01T02:08:14;95316.84;;;5.65;100.00
20620;BME280;10469;42.720;23.252;2023-03-01T02:10:41;95317.03;;;5.63;100.00
20620;BME280;10469;42.720;23.252;2023-03-01T02:13:07;95317.25;;;5.62;100.00
20620;BME280;10469;42.720;23.252;2023-03-01T02:15:34;95308.84;;;5.65;100.00
20620;BME280;10469;42.720;23.252;2023-03-01T02:18:01;95304.91;;;5.54;100.00
20620;BME280;10469;42.720;23.252;2023-03-01T02:20:33;95291.59;;;5.54;100.00
20620;BME280;10469;42.720;23.252;2023-03-01T02:22:59;95298.09;;;5.45;100.00
20620;BME280;10469;42.720;23.252;2023-03-01T02:30:36;95316.56;;;5.53;100.00
20620;BME280;10469;42.720;23.252;2023-03-01T02:33:03;95316.00;;;5.58;100.00
20620;BME280;10469;42.720;23.252;2023-03-01T02:35:37;95314.63;;;5.40;100.00
20620;BME280;10469;42.720;23.252;2023-03-01T02:38:05;95322.28;;;5.50;100.00
20620;BME280;10469;42.720;23.252;2023-03-01T02:40:33;95326.34;;;5.46;100.00
20620;BME280;10469;42.720;23.252;2023-03-01T02:42:59;95332.47;;;5.46;100.00
20620;BME280;10469;42.720;23.252;2023-03-01T02:45:26;95323.38;;;5.34;100.00
20620;BME280;10469;42.720;23.252;2023-03-01T02:47:56;95335.72;;;5.42;100.00
20620;BME280;10469;42.720;23.252;2023-03-01T02:55:36;95331.66;;;5.46;100.00
20620;BME280;10469;42.720;23.252;2023-03-01T02:58:02;95318.50;;;5.38;100.00
20620;BME280;10469;42.720;23.252;2023-03-01T03:00:41;95324.69;;;5.45;100.00
20620;BME280;10469;42.720;23.252;2023-03-01T03:03:19;95326.28;;;5.39;100.00
20620;BME280;10469;42.720;23.252;2023-03-01T03:05:45;95317.31;;;5.40;100.00
20620;BME280;10469;42.720;23.252;2023-03-01T03:08:11;95328.34;;;5.44;100.00
20620;BME280;10469;42.720;23.252;2023-03-01T03:10:40;95328.75;;;5.41;100.00
20620;BME280;10469;42.720;23.252;2023-03-01T03:13:13;95330.25;;;5.50;100.00
20620;BME280;10469;42.720;23.252;2023-03-01T03:15:40;95334.94;;;5.48;100.00
20620;BME280;10469;42.720;23.252;2023-03-01T03:18:09;95329.38;;;5.43;100.00
20620;BME280;10469;42.720;23.252;2023-03-01T03:20:36;95331.00;;;5.44;100.00
20620;BME280;10469;42.720;23.252;2023-03-01T03:23:03;95336.75;;;5.41;100.00
20620;BME280;10469;42.720;23.252;2023-03-01T03:25:29;95334.69;;;5.43;100.00
20620;BME280;10469;42.720;23.252;2023-03-01T03:27:56;95338.56;;;5.40;100.00
20620;BME280;10469;42.720;23.252;2023-03-01T03:30:29;95340.66;;;5.45;100.00
20620;BME280;10469;42.720;23.252;2023-03-01T03:32:55;95336.16;;;5.45;100.00
20620;BME280;10469;42.720;23.252;2023-03-01T03:35:28;95330.59;;;5.40;100.00
20620;BME280;10469;42.720;23.252;2023-03-01T03:38:04;95350.03;;;5.41;100.00
20620;BME280;10469;42.720;23.252;2023-03-01T03:40:46;95341.09;;;5.48;100.00
20620;BME280;10469;42.720;23.252;2023-03-01T03:43:14;95331.59;;;5.39;100.00
20620;BME280;10469;42.720;23.252;2023-03-01T03:45:41;95353.13;;;5.44;100.00
20620;BME280;10469;42.720;23.252;2023-03-01T03:48:08;95353.84;;;5.32;100.00
20620;BME280;10469;42.720;23.252;2023-03-01T03:50:34;95341.41;;;5.39;100.00
20620;BME280;10469;42.720;23.252;2023-03-01T03:53:01;95346.69;;;5.32;100.00
20620;BME280;10469;42.720;23.252;2023-03-01T03:55:27;95351.59;;;5.35;100.00
20620;BME280;10469;42.720;23.252;2023-03-01T03:57:57;95352.19;;;5.31;100.00
20620;BME280;10469;42.720;23.252;2023-03-01T04:00:23;95337.69;;;5.33;100.00
20620;BME280;10469;42.720;23.252;2023-03-01T04:02:50;95335.25;;;5.32;100.00
20620;BME280;10469;42.720;23.252;2023-03-01T04:05:18;95339.53;;;5.33;100.00
20620;BME280;10469;42.720;23.252;2023-03-01T04:07:44;95338.72;;;5.32;100.00
20620;BME280;10469;42.720;23.252;2023-03-01T04:10:13;95336.88;;;5.33;100.00
20620;BME280;10469;42.720;23.252;2023-03-01T04:12:39;95334.03;;;5.13;100.00
20620;BME280;10469;42.720;23.252;2023-03-01T04:15:06;95348.22;;;5.20;100.00
20620;BME280;10469;42.720;23.252;2023-03-01T04:17:45;95345.75;;;5.18;100.00
20620;BME280;10469;42.720;23.252;2023-03-01T04:20:13;95349.25;;;5.19;100.00
20620;BME280;10469;42.720;23.252;2023-03-01T04:22:43;95354.44;;;5.06;100.00
20620;BME280;10469;42.720;23.252;2023-03-01T04:25:11;95333.91;;;4.78;100.00
20620;BME280;10469;42.720;23.252;2023-03-01T04:27:39;95349.03;;;4.77;100.00
20620;BME280;10469;42.720;23.252;2023-03-01T04:30:06;95339.44;;;4.76;100.00
20620;BME280;10469;42.720;23.252;2023-03-01T04:32:32;95338.41;;;4.77;100.00
20620;BME280;10469;42.720;23.252;2023-03-01T04:34:58;95346.03;;;4.81;100.00
20620;BME280;10469;42.720;23.252;2023-03-01T04:37:23;95328.31;;;4.66;100.00
20620;BME280;10469;42.720;23.252;2023-03-01T04:39:49;95343.03;;;4.69;100.00
20620;BME280;10469;42.720;23.252;2023-03-01T04:42:15;95327.66;;;4.64;100.00
20620;BME280;10469;42.720;23.252;2023-03-01T04:44:42;95314.94;;;4.60;100.00
20620;BME280;10469;42.720;23.252;2023-03-01T04:47:08;95321.84;;;4.54;100.00
20620;BME280;10469;42.720;23.252;2023-03-01T04:49:33;95332.25;;;4.56;100.00
20620;BME280;10469;42.720;23.252;2023-03-01T04:51:59;95327.41;;;4.59;100.00
20620;BME280;10469;42.720;23.252;2023-03-01T04:54:28;95318.03;;;4.42;100.00
20620;BME280;10469;42.720;23.252;2023-03-01T04:56:54;95320.59;;;4.35;100.00
20620;BME280;10469;42.720;23.252;2023-03-01T04:59:23;95334.31;;;4.39;100.00
20620;BME280;10469;42.720;23.252;2023-03-01T05:01:52;95326.25;;;4.47;100.00
20620;BME280;10469;42.720;23.252;2023-03-01T05:04:24;95327.06;;;4.47;100.00
20620;BME280;10469;42.720;23.252;2023-03-01T05:06:50;95283.94;;;4.24;100.00
20620;BME280;10469;42.720;23.252;2023-03-01T05:09:15;95323.91;;;4.22;100.00
20620;BME280;10469;42.720;23.252;2023-03-01T05:11:41;95326.66;;;4.29;100.00
20620;BME280;10469;42.720;23.252;2023-03-01T05:14:08;95332.22;;;4.34;100.00
20620;BME280;10469;42.720;23.252;2023-03-01T05:16:35;95333.41;;;4.32;100.00
20620;BME280;10469;42.720;23.252;2023-03-01T05:19:02;95341.66;;;4.37;100.00
20620;BME280;10469;42.720;23.252;2023-03-01T05:21:39;95339.19;;;4.35;100.00
20620;BME280;10469;42.720;23.252;2023-03-01T05:24:25;95346.53;;;4.33;100.00
20620;BME280;10469;42.720;23.252;2023-03-01T05:26:51;95353.00;;;4.31;100.00
20620;BME280;10469;42.720;23.252;2023-03-01T05:29:21;95343.75;;;4.41;100.00
20620;BME280;10469;42.720;23.252;2023-03-01T05:31:56;95351.06;;;4.39;100.00
20620;BME280;10469;42.720;23.252;2023-03-01T05:34:26;95337.69;;;4.47;100.00
20620;BME280;10469;42.720;23.252;2023-03-01T05:36:53;95342.28;;;4.53;100.00
20620;BME280;10469;42.720;23.252;2023-03-01T05:39:23;95350.81;;;4.70;100.00
20620;BME280;10469;42.720;23.252;2023-03-01T05:41:52;95339.56;;;4.68;100.00
20620;BME280;10469;42.720;23.252;2023-03-01T05:44:18;95356.13;;;4.70;100.00
20620;BME280;10469;42.720;23.252;2023-03-01T05:46:44;95350.69;;;4.78;100.00
20620;BME280;10469;42.720;23.252;2023-03-01T05:49:10;95354.25;;;4.86;100.00
20620;BME280;10469;42.720;23.252;2023-03-01T05:51:39;95359.63;;;4.92;100.00
20620;BME280;10469;42.720;23.252;2023-03-01T05:54:05;95370.06;;;4.94;100.00
20620;BME280;10469;42.720;23.252;2023-03-01T05:56:34;95371.09;;;4.93;100.00
20620;BME280;10469;42.720;23.252;2023-03-01T05:59:00;95374.72;;;4.92;100.00
20620;BME280;10469;42.720;23.252;2023-03-01T06:01:26;95369.94;;;5.02;100.00
20620;BME280;10469;42.720;23.252;2023-03-01T06:03:52;95370.97;;;5.01;100.00
20620;BME280;10469;42.720;23.252;2023-03-01T06:06:17;95383.22;;;5.23;100.00
20620;BME280;10469;42.720;23.252;2023-03-01T06:08:43;95375.25;;;5.23;100.00
20620;BME280;10469;42.720;23.252;2023-03-01T06:11:09;95380.56;;;5.23;100.00
20620;BME280;10469;42.720;23.252;2023-03-01T06:13:34;95372.53;;;5.17;100.00
20620;BME280;10469;42.720;23.252;2023-03-01T06:16:00;95394.03;;;5.22;100.00
20620;BME280;10469;42.720;23.252;2023-03-01T06:18:25;95383.03;;;5.25;100.00
20620;BME280;10469;42.720;23.252;2023-03-01T06:20:55;95395.38;;;5.33;100.00
20620;BME280;10469;42.720;23.252;2023-03-01T06:23:21;95391.56;;;5.20;100.00
20620;BME280;10469;42.720;23.252;2023-03-01T06:25:47;95389.94;;;5.19;100.00
20620;BME280;10469;42.720;23.252;2023-03-01T06:28:13;95388.69;;;5.15;100.00
20620;BME280;10469;42.720;23.252;2023-03-01T06:30:38;95383.00;;;5.18;100.00
20620;BME280;10469;42.720;23.252;2023-03-01T06:33:04;95389.13;;;5.19;100.00
20620;BME280;10469;42.720;23.252;2023-03-01T06:35:29;95385.69;;;5.25;100.00
20620;BME280;10469;42.720;23.252;2023-03-01T06:37:57;95381.97;;;5.19;100.00
20620;BME280;10469;42.720;23.252;2023-03-01T06:40:23;95396.41;;;5.32;100.00
20620;BME280;10469;42.720;23.252;2023-03-01T06:42:49;95392.28;;;5.29;100.00
20620;BME280;10469;42.720;23.252;2023-03-01T06:45:17;95382.81;;;5.26;100.00
20620;BME280;10469;42.720;23.252;2023-03-01T06:47:43;95383.03;;;5.25;100.00
20620;BME280;10469;42.720;23.252;2023-03-01T06:50:09;95390.75;;;5.41;100.00
20620;BME280;10469;42.720;23.252;2023-03-01T06:52:35;95389.28;;;5.39;100.00
20620;BME280;10469;42.720;23.252;2023-03-01T06:55:01;95397.31;;;5.45;100.00
20620;BME280;10469;42.720;23.252;2023-03-01T06:57:27;95382.31;;;5.38;100.00
20620;BME280;10469;42.720;23.252;2023-03-01T06:59:52;95399.66;;;5.55;100.00
20620;BME280;10469;42.720;23.252;2023-03-01T07:02:18;95377.22;;;5.64;100.00
20620;BME280;10469;42.720;23.252;2023-03-01T07:04:44;95386.22;;;5.63;100.00
20620;BME280;10469;42.720;23.252;2023-03-01T07:07:11;95387.81;;;5.58;100.00
20620;BME280;10469;42.720;23.252;2023-03-01T07:09:36;95394.34;;;5.55;100.00
20620;BME280;10469;42.720;23.252;2023-03-01T07:12:02;95393.59;;;5.68;100.00
20620;BME280;10469;42.720;23.252;2023-03-01T07:14:28;95362.38;;;5.48;100.00
20620;BME280;10469;42.720;23.252;2023-03-01T07:16:54;95373.06;;;5.55;100.00
20620;BME280;10469;42.720;23.252;2023-03-01T07:19:21;95380.06;;;5.63;100.00
20620;BME280;10469;42.720;23.252;2023-03-01T07:21:47;95385.94;;;5.86;100.00
20620;BME280;10469;42.720;23.252;2023-03-01T07:24:13;95369.28;;;5.99;100.00
20620;BME280;10469;42.720;23.252;2023-03-01T07:26:38;95365.59;;;5.72;100.00
20620;BME280;10469;42.720;23.252;2023-03-01T07:29:07;95367.53;;;5.85;100.00
20620;BME280;10469;42.720;23.252;2023-03-01T07:31:35;95359.31;;;5.79;100.00
20620;BME280;10469;42.720;23.252;2023-03-01T07:34:00;95373.34;;;5.95;100.00
20620;BME280;10469;42.720;23.252;2023-03-01T07:36:26;95367.75;;;6.18;100.00
20620;BME280;10469;42.720;23.252;2023-03-01T07:38:52;95359.13;;;6.09;100.00
20620;BME280;10469;42.720;23.252;2023-03-01T07:41:17;95372.66;;;6.14;100.00
20620;BME280;10469;42.720;23.252;2023-03-01T07:43:43;95373.59;;;6.41;100.00
20620;BME280;10469;42.720;23.252;2023-03-01T07:46:09;95358.16;;;6.23;100.00
20620;BME280;10469;42.720;23.252;2023-03-01T07:48:35;95357.78;;;6.26;100.00
20620;BME280;10469;42.720;23.252;2023-03-01T07:51:02;95358.53;;;6.20;100.00
20620;BME280;10469;42.720;23.252;2023-03-01T07:53:29;95376.53;;;6.53;100.00
20620;BME280;10469;42.720;23.252;2023-03-01T07:56:11;95360.53;;;6.60;100.00
20620;BME280;10469;42.720;23.252;2023-03-01T07:58:39;95358.03;;;6.45;100.00
20620;BME280;10469;42.720;23.252;2023-03-01T08:01:07;95353.84;;;6.22;100.00
20620;BME280;10469;42.720;23.252;2023-03-01T08:03:35;95339.72;;;6.22;100.00
20620;BME280;10469;42.720;23.252;2023-03-01T08:06:02;95368.31;;;6.48;100.00
20620;BME280;10469;42.720;23.252;2023-03-01T08:08:28;95371.47;;;6.23;100.00
20620;BME280;10469;42.720;23.252;2023-03-01T08:10:58;95356.69;;;6.21;100.00
20620;BME280;10469;42.720;23.252;2023-03-01T08:13:24;95332.81;;;6.41;100.00
20620;BME280;10469;42.720;23.252;2023-03-01T08:15:49;95349.06;;;6.52;100.00
20620;BME280;10469;42.720;23.252;2023-03-01T08:18:16;95334.03;;;6.38;100.00
20620;BME280;10469;42.720;23.252;2023-03-01T08:20:42;95363.38;;;6.51;100.00
20620;BME280;10469;42.720;23.252;2023-03-01T08:23:08;95361.69;;;6.37;100.00
20620;BME280;10469;42.720;23.252;2023-03-01T08:25:33;95343.94;;;6.64;100.00
20620;BME280;10469;42.720;23.252;2023-03-01T08:27:59;95344.13;;;6.49;100.00
20620;BME280;10469;42.720;23.252;2023-03-01T08:30:24;95344.34;;;6.54;100.00
20620;BME280;10469;42.720;23.252;2023-03-01T08:32:50;95348.97;;;7.00;100.00
20620;BME280;10469;42.720;23.252;2023-03-01T08:35:16;95358.16;;;6.85;100.00
20620;BME280;10469;42.720;23.252;2023-03-01T08:37:42;95353.19;;;6.68;100.00
20620;BME280;10469;42.720;23.252;2023-03-01T08:40:09;95347.06;;;6.81;100.00
20620;BME280;10469;42.720;23.252;2023-03-01T08:42:36;95341.72;;;6.61;100.00
20620;BME280;10469;42.720;23.252;2023-03-01T08:45:02;95337.25;;;6.95;100.00
20620;BME280;10469;42.720;23.252;2023-03-01T08:47:28;95341.59;;;6.96;100.00
20620;BME280;10469;42.720;23.252;2023-03-01T08:49:53;95343.44;;;6.95;100.00
20620;BME280;10469;42.720;23.252;2023-03-01T08:52:20;95331.97;;;7.21;100.00
20620;BME280;10469;42.720;23.252;2023-03-01T08:54:47;95323.56;;;7.58;100.00
20620;BME280;10469;42.720;23.252;2023-03-01T08:57:13;95336.69;;;7.52;100.00
20620;BME280;10469;42.720;23.252;2023-03-01T08:59:38;95344.72;;;7.39;100.00
20620;BME280;10469;42.720;23.252;2023-03-01T09:02:05;95349.22;;;7.32;100.00
20620;BME280;10469;42.720;23.252;2023-03-01T09:04:35;95350.25;;;7.31;100.00
20620;BME280;10469;42.720;23.252;2023-03-01T09:07:00;95330.75;;;7.04;100.00
20620;BME280;10469;42.720;23.252;2023-03-01T09:09:26;95317.19;;;7.59;100.00
20620;BME280;10469;42.720;23.252;2023-03-01T09:11:52;95330.31;;;7.73;100.00
20620;BME280;10469;42.720;23.252;2023-03-01T09:14:17;95341.41;;;7.44;100.00
20620;BME280;10469;42.720;23.252;2023-03-01T09:16:43;95347.56;;;7.31;100.00
20620;BME280;10469;42.720;23.252;2023-03-01T09:19:08;95334.25;;;7.31;100.00
20620;BME280;10469;42.720;23.252;2023-03-01T09:21:34;95331.78;;;7.43;100.00
20620;BME280;10469;42.720;23.252;2023-03-01T09:24:00;95333.84;;;7.47;100.00
20620;BME280;10469;42.720;23.252;2023-03-01T09:26:25;95327.88;;;7.52;100.00
20620;BME280;10469;42.720;23.252;2023-03-01T09:28:55;95329.31;;;7.28;100.00
20620;BME280;10469;42.720;23.252;2023-03-01T09:31:22;95330.91;;;7.89;100.00
20620;BME280;10469;42.720;23.252;2023-03-01T09:33:49;95325.28;;;8.10;100.00
20620;BME280;10469;42.720;23.252;2023-03-01T09:36:18;95326.16;;;8.04;100.00
20620;BME280;10469;42.720;23.252;2023-03-01T09:38:44;95316.25;;;8.11;100.00
20620;BME280;10469;42.720;23.252;2023-03-01T09:44:03;95333.41;;;7.50;100.00
20620;BME280;10469;42.720;23.252;2023-03-01T09:46:40;95327.81;;;7.92;100.00
20620;BME280;10469;42.720;23.252;2023-03-01T09:49:14;95301.06;;;7.98;100.00
20620;BME280;10469;42.720;23.252;2023-03-01T09:51:43;95319.00;;;7.71;100.00
20620;BME280;10469;42.720;23.252;2023-03-01T09:54:14;95298.63;;;7.97;100.00
20620;BME280;10469;42.720;23.252;2023-03-01T09:56:41;95302.06;;;8.17;100.00
20620;BME280;10469;42.720;23.252;2023-03-01T10:05:31;95303.94;;;8.10;100.00
20620;BME280;10469;42.720;23.252;2023-03-01T10:10:43;95287.53;;;7.93;100.00
20620;BME280;10469;42.720;23.252;2023-03-01T10:16:52;95280.47;;;8.25;100.00
20620;BME280;10469;42.720;23.252;2023-03-01T10:19:40;95292.34;;;8.43;100.00
20620;BME280;10469;42.720;23.252;2023-03-01T10:22:27;95296.44;;;8.32;100.00
20620;BME280;10469;42.720;23.252;2023-03-01T10:24:55;95289.13;;;8.14;100.00
20620;BME280;10469;42.720;23.252;2023-03-01T10:30:02;95282.91;;;8.72;100.00
20620;BME280;10469;42.720;23.252;2023-03-01T10:32:31;95298.91;;;8.40;100.00
20620;BME280;10469;42.720;23.252;2023-03-01T10:34:56;95297.00;;;7.96;100.00
20620;BME280;10469;42.720;23.252;2023-03-01T10:37:22;95289.56;;;8.04;100.00
20620;BME280;10469;42.720;23.252;2023-03-01T10:40:02;95276.66;;;8.53;100.00
20620;BME280;10469;42.720;23.252;2023-03-01T10:42:54;95277.88;;;8.89;100.00
20620;BME280;10469;42.720;23.252;2023-03-01T10:45:39;95266.03;;;8.78;100.00
20620;BME280;10469;42.720;23.252;2023-03-01T10:48:13;95283.22;;;8.57;100.00
20620;BME280;10469;42.720;23.252;2023-03-01T10:50:44;95270.81;;;8.18;100.00
20620;BME280;10469;42.720;23.252;2023-03-01T10:53:44;95265.81;;;8.41;100.00
20620;BME280;10469;42.720;23.252;2023-03-01T10:56:14;95267.28;;;8.30;100.00
20620;BME280;10469;42.720;23.252;2023-03-01T10:59:04;95267.34;;;8.11;100.00
20620;BME280;10469;42.720;23.252;2023-03-01T11:01:32;95275.75;;;8.14;100.00
20620;BME280;10469;42.720;23.252;2023-03-01T11:06:34;95275.84;;;8.46;100.00
20620;BME280;10469;42.720;23.252;2023-03-01T11:09:20;95258.44;;;8.37;100.00
20620;BME280;10469;42.720;23.252;2023-03-01T11:11:46;95268.88;;;8.45;100.00
20620;BME280;10469;42.720;23.252;2023-03-01T11:14:22;95278.66;;;8.06;100.00
20620;BME280;10469;42.720;23.252;2023-03-01T11:16:57;95271.66;;;8.12;100.00
20620;BME280;10469;42.720;23.252;2023-03-01T11:19:23;95261.56;;;8.20;100.00
20620;BME280;10469;42.720;23.252;2023-03-01T11:22:19;95255.66;;;8.05;100.00
20620;BME280;10469;42.720;23.252;2023-03-01T11:24:51;95254.91;;;8.43;100.00
20620;BME280;10469;42.720;23.252;2023-03-01T11:30:20;95257.53;;;7.98;100.00
20620;BME280;10469;42.720;23.252;2023-03-01T11:33:05;95247.66;;;8.05;100.00
20620;BME280;10469;42.720;23.252;2023-03-01T11:36:30;95234.41;;;7.72;100.00
20620;BME280;10469;42.720;23.252;2023-03-01T11:38:29;95237.47;;;7.75;100.00
20620;BME280;10469;42.720;23.252;2023-03-01T11:41:15;95252.81;;;8.00;100.00
20620;BME280;10469;42.720;23.252;2023-03-01T11:43:58;95251.19;;;7.86;100.00
20620;BME280;10469;42.720;23.252;2023-03-01T11:57:53;95225.09;;;7.94;100.00
20620;BME280;10469;42.720;23.252;2023-03-01T12:16:48;95220.91;;;8.12;100.00
20620;BME280;10469;42.720;23.252;2023-03-01T12:30:21;95210.25;;;8.50;100.00
20620;BME280;10469;42.720;23.252;2023-03-01T12:38:50;95196.81;;;8.88;100.00
20620;BME280;10469;42.720;23.252;2023-03-01T12:44:01;95192.94;;;9.52;100.00
20620;BME280;10469;42.720;23.252;2023-03-01T12:49:29;95208.25;;;8.77;100.00
20620;BME280;10469;42.720;23.252;2023-03-01T12:52:03;95198.03;;;8.92;100.00
20620;BME280;10469;42.720;23.252;2023-03-01T12:54:36;95185.19;;;8.76;100.00
20620;BME280;10469;42.720;23.252;2023-03-01T12:57:15;95210.84;;;8.84;100.00
20620;BME280;10469;42.720;23.252;2023-03-01T13:00:23;95207.47;;;8.70;100.00
20620;BME280;10469;42.720;23.252;2023-03-01T13:06:01;95194.94;;;8.95;100.00
20620;BME280;10469;42.720;23.252;2023-03-01T13:11:04;95197.09;;;8.55;100.00
20620;BME280;10469;42.720;23.252;2023-03-01T13:13:31;95186.97;;;8.57;100.00
20620;BME280;10469;42.720;23.252;2023-03-01T13:15:57;95184.34;;;8.12;100.00
20620;BME280;10469;42.720;23.252;2023-03-01T13:18:36;95191.53;;;8.50;100.00
20620;BME280;10469;42.720;23.252;2023-03-01T13:21:03;95203.88;;;8.06;100.00
20620;BME280;10469;42.720;23.252;2023-03-01T13:23:34;95192.97;;;8.14;100.00
20620;BME280;10469;42.720;23.252;2023-03-01T13:26:15;95213.19;;;7.97;100.00
20620;BME280;10469;42.720;23.252;2023-03-01T13:46:50;95190.34;;;8.46;100.00
20620;BME280;10469;42.720;23.252;2023-03-01T13:49:19;95193.28;;;8.38;100.00
20620;BME280;10469;42.720;23.252;2023-03-01T13:51:47;95186.31;;;8.62;100.00
20620;BME280;10469;42.720;23.252;2023-03-01T13:54:15;95197.56;;;8.70;100.00
20620;BME280;10469;42.720;23.252;2023-03-01T13:56:41;95190.63;;;8.24;100.00
20620;BME280;10469;42.720;23.252;2023-03-01T13:59:15;95189.66;;;8.19;100.00
20620;BME280;10469;42.720;23.252;2023-03-01T14:01:42;95178.56;;;8.15;100.00
20620;BME280;10469;42.720;23.252;2023-03-01T14:04:31;95193.78;;;8.53;100.00
20620;BME280;10469;42.720;23.252;2023-03-01T14:07:32;95168.28;;;8.57;100.00
20620;BME280;10469;42.720;23.252;2023-03-01T14:10:00;95185.84;;;8.46;100.00
20620;BME280;10469;42.720;23.252;2023-03-01T14:12:41;95178.78;;;8.52;100.00
20620;BME280;10469;42.720;23.252;2023-03-01T14:15:24;95167.50;;;8.50;100.00
20620;BME280;10469;42.720;23.252;2023-03-01T14:20:43;95182.03;;;8.22;100.00
20620;BME280;10469;42.720;23.252;2023-03-01T14:23:18;95184.69;;;8.22;100.00
20620;BME280;10469;42.720;23.252;2023-03-01T14:25:53;95191.41;;;7.93;100.00
20620;BME280;10469;42.720;23.252;2023-03-01T14:28:29;95187.34;;;7.91;100.00
20620;BME280;10469;42.720;23.252;2023-03-01T14:30:58;95182.00;;;7.91;100.00
20620;BME280;10469;42.720;23.252;2023-03-01T14:36:07;95171.91;;;7.93;100.00
20620;BME280;10469;42.720;23.252;2023-03-01T14:38:41;95166.31;;;8.08;100.00
20620;BME280;10469;42.720;23.252;2023-03-01T14:41:14;95176.13;;;8.07;100.00
20620;BME280;10469;42.720;23.252;2023-03-01T14:43:46;95182.69;;;8.11;100.00
20620;BME280;10469;42.720;23.252;2023-03-01T14:46:40;95167.63;;;7.85;100.00
20620;BME280;10469;42.720;23.252;2023-03-01T14:51:42;95173.28;;;7.57;100.00
20620;BME280;10469;42.720;23.252;2023-03-01T14:54:31;95180.84;;;7.67;100.00
20620;BME280;10469;42.720;23.252;2023-03-01T14:57:01;95175.88;;;7.77;100.00
20620;BME280;10469;42.720;23.252;2023-03-01T14:59:26;95178.00;;;7.55;100.00